sensor_id;sensor_type;location;lat;lon;timestamp;pressure;altitude;pressure_sealevel;temperature;humidity
64023;BME280;50264;52.088;5.296;2023-02-22T00:01:18;101514.0;;;7.94;93.64
64023;BME280;50264;52.088;5.296;2023-02-22T00:02:58;101520.0;;;7.92;93.54
64023;BME280;50264;52.088;5.296;2023-02-22T00:06:15;101518.0;;;7.88;92.73
64023;BME280;50264;52.088;5.296;2023-02-22T00:07:56;101516.0;;;7.96;93.4
64023;BME280;50264;52.088;5.296;2023-02-22T00:09:33;101511.0;;;7.88;92.61
64023;BME280;50264;52.088;5.296;2023-02-22T00:11:10;101510.0;;;7.8;92.3
64023;BME280;50264;52.088;5.296;2023-02-22T00:14:26;101510.0;;;7.79;92.7
64023;BME280;50264;52.088;5.296;2023-02-22T00:16:03;101514.0;;;7.78;92.89
64023;BME280;50264;52.088;5.296;2023-02-22T00:17:41;101514.0;;;7.76;92.43
64023;BME280;50264;52.088;5.296;2023-02-22T00:19:18;101514.0;;;7.73;93.87
64023;BME280;50264;52.088;5.296;2023-02-22T00:22:31;101513.0;;;7.72;93.48
64023;BME280;50264;52.088;5.296;2023-02-22T00:24:22;101511.0;;;7.72;93.81
64023;BME280;50264;52.088;5.296;2023-02-22T00:25:59;101515.0;;;7.73;93.49
64023;BME280;50264;52.088;5.296;2023-02-22T00:29:11;101517.0;;;7.81;93.6
64023;BME280;50264;52.088;5.296;2023-02-22T00:30:48;101515.0;;;7.82;93.35
64023;BME280;50264;52.088;5.296;2023-02-22T00:32:25;101518.0;;;7.83;93.56
64023;BME280;50264;52.088;5.296;2023-02-22T00:34:01;101519.0;;;7.88;92.72
64023;BME280;50264;52.088;5.296;2023-02-22T00:37:14;101513.0;;;7.79;93.19
64023;BME280;50264;52.088;5.296;2023-02-22T00:38:50;101514.0;;;7.78;92.91
64023;BME280;50264;52.088;5.296;2023-02-22T00:40:29;101508.0;;;7.77;92.18
64023;BME280;50264;52.088;5.296;2023-02-22T00:43:43;101509.0;;;7.81;93.7
64023;BME280;50264;52.088;5.296;2023-02-22T00:45:21;101506.0;;;7.86;91.96
64023;BME280;50264;52.088;5.296;2023-02-22T00:46:59;101503.0;;;7.9;93.18
64023;BME280;50264;52.088;5.296;2023-02-22T00:48:35;101497.0;;;7.8;92.48
64023;BME280;50264;52.088;5.296;2023-02-22T00:51:50;101496.0;;;7.8;92.06
64023;BME280;50264;52.088;5.296;2023-02-22T00:53:27;101494.0;;;7.83;92.6
64023;BME280;50264;52.088;5.296;2023-02-22T00:55:08;101488.0;;;7.77;93.35
64023;BME280;50264;52.088;5.296;2023-02-22T00:58:20;101487.0;;;7.68;93.06
64023;BME280;50264;52.088;5.296;2023-02-22T00:59:57;101478.0;;;7.73;93.51
64023;BME280;50264;52.088;5.296;2023-02-22T01:01:33;101482.0;;;7.73;93.46
64023;BME280;50264;52.088;5.296;2023-02-22T01:04:52;101485.0;;;7.74;93.66
64023;BME280;50264;52.088;5.296;2023-02-22T01:06:28;101483.0;;;7.73;93.18
64023;BME280;50264;52.088;5.296;2023-02-22T01:08:06;101482.0;;;7.77;92.72
64023;BME280;50264;52.088;5.296;2023-02-22T01:09:44;101474.0;;;7.74;93.79
64023;BME280;50264;52.088;5.296;2023-02-22T01:12:59;101480.0;;;7.7;94.09
64023;BME280;50264;52.088;5.296;2023-02-22T01:14:36;101476.0;;;7.68;94.11
64023;BME280;50264;52.088;5.296;2023-02-22T01:16:12;101473.0;;;7.67;93.5
64023;BME280;50264;52.088;5.296;2023-02-22T01:19:27;101480.0;;;7.69;93.33
64023;BME280;50264;52.088;5.296;2023-02-22T01:21:04;101480.0;;;7.73;93.08
64023;BME280;50264;52.088;5.296;2023-02-22T01:22:42;101478.0;;;7.7;92.98
64023;BME280;50264;52.088;5.296;2023-02-22T01:24:21;101485.0;;;7.67;92.66
64023;BME280;50264;52.088;5.296;2023-02-22T01:27:34;101486.0;;;7.65;92.64
64023;BME280;50264;52.088;5.296;2023-02-22T01:29:15;101485.0;;;7.61;91.95
64023;BME280;50264;52.088;5.296;2023-02-22T01:30:55;101480.0;;;7.54;91.34
64023;BME280;50264;52.088;5.296;2023-02-22T01:32:35;101477.0;;;7.46;91.33
64023;BME280;50264;52.088;5.296;2023-02-22T01:35:50;101474.0;;;7.32;91.85
64023;BME280;50264;52.088;5.296;2023-02-22T01:37:26;101469.0;;;7.42;92.85
64023;BME280;50264;52.088;5.296;2023-02-22T01:39:02;101462.0;;;7.47;92.63
64023;BME280;50264;52.088;5.296;2023-02-22T01:42:17;101464.0;;;7.51;93.0
64023;BME280;50264;52.088;5.296;2023-02-22T01:43:53;101458.0;;;7.43;91.89
64023;BME280;50264;52.088;5.296;2023-02-22T01:45:41;101457.0;;;7.49;90.87
64023;BME280;50264;52.088;5.296;2023-02-22T01:47:39;101469.0;;;7.51;90.94
64023;BME280;50264;52.088;5.296;2023-02-22T01:49:16;101462.0;;;7.49;90.7
64023;BME280;50264;52.088;5.296;2023-02-22T01:52:34;101459.0;;;7.5;90.91
64023;BME280;50264;52.088;5.296;2023-02-22T01:54:15;101463.0;;;7.53;90.79
64023;BME280;50264;52.088;5.296;2023-02-22T01:55:55;101457.0;;;7.49;91.77
64023;BME280;50264;52.088;5.296;2023-02-22T01:59:12;101455.0;;;7.51;91.61
64023;BME280;50264;52.088;5.296;2023-02-22T02:00:49;101453.0;;;7.46;90.79
64023;BME280;50264;52.088;5.296;2023-02-22T02:02:26;101446.0;;;7.38;90.22
64023;BME280;50264;52.088;5.296;2023-02-22T02:04:06;101442.0;;;7.28;91.33
64023;BME280;50264;52.088;5.296;2023-02-22T02:07:25;101447.0;;;7.17;91.14
64023;BME280;50264;52.088;5.296;2023-02-22T02:09:07;101441.0;;;7.25;91.98
64023;BME280;50264;52.088;5.296;2023-02-22T02:10:46;101435.0;;;7.2;91.99
64023;BME280;50264;52.088;5.296;2023-02-22T02:12:27;101438.0;;;7.31;92.6
64023;BME280;50264;52.088;5.296;2023-02-22T02:15:43;101435.0;;;7.27;90.74
64023;BME280;50264;52.088;5.296;2023-02-22T02:17:21;101435.0;;;7.27;91.3
64023;BME280;50264;52.088;5.296;2023-02-22T02:18:58;101433.0;;;7.2;89.91
64023;BME280;50264;52.088;5.296;2023-02-22T02:22:35;101431.0;;;7.05;90.8
64023;BME280;50264;52.088;5.296;2023-02-22T02:24:38;101426.0;;;6.96;90.68
64023;BME280;50264;52.088;5.296;2023-02-22T02:27:21;101427.0;;;7.01;90.78
64023;BME280;50264;52.088;5.296;2023-02-22T02:29:29;101414.0;;;6.94;91.72
64023;BME280;50264;52.088;5.296;2023-02-22T02:32:51;101410.0;;;7.0;91.57
64023;BME280;50264;52.088;5.296;2023-02-22T02:36:18;101417.0;;;6.89;92.22
64023;BME280;50264;52.088;5.296;2023-02-22T02:38:03;101411.0;;;6.86;91.91
64023;BME280;50264;52.088;5.296;2023-02-22T02:39:50;101408.0;;;6.87;92.65
64023;BME280;50264;52.088;5.296;2023-02-22T02:41:35;101411.0;;;6.91;91.63
64023;BME280;50264;52.088;5.296;2023-02-22T02:45:07;101405.0;;;6.91;91.7
64023;BME280;50264;52.088;5.296;2023-02-22T02:46:49;101402.0;;;6.88;92.55
64023;BME280;50264;52.088;5.296;2023-02-22T02:48:33;101395.0;;;6.97;92.07
64023;BME280;50264;52.088;5.296;2023-02-22T02:50:15;101398.0;;;6.74;91.92
64023;BME280;50264;52.088;5.296;2023-02-22T02:53:35;101391.0;;;6.81;91.38
64023;BME280;50264;52.088;5.296;2023-02-22T02:55:13;101388.0;;;6.71;92.21
64023;BME280;50264;52.088;5.296;2023-02-22T02:56:52;101386.0;;;6.7;91.6
64023;BME280;50264;52.088;5.296;2023-02-22T02:58:30;101386.0;;;6.7;92.46
64023;BME280;50264;52.088;5.296;2023-02-22T03:02:14;101382.0;;;6.72;91.94
64023;BME280;50264;52.088;5.296;2023-02-22T03:04:23;101386.0;;;6.6;92.19
64023;BME280;50264;52.088;5.296;2023-02-22T03:06:15;101386.0;;;6.6;92.29
64023;BME280;50264;52.088;5.296;2023-02-22T03:08:19;101386.0;;;6.46;92.53
64023;BME280;50264;52.088;5.296;2023-02-22T03:10:13;101381.0;;;6.48;91.97
64023;BME280;50264;52.088;5.296;2023-02-22T03:12:15;101386.0;;;6.31;93.17
64023;BME280;50264;52.088;5.296;2023-02-22T03:14:00;101383.0;;;6.24;93.68
64023;BME280;50264;52.088;5.296;2023-02-22T03:15:49;101381.0;;;6.43;93.96
64023;BME280;50264;52.088;5.296;2023-02-22T03:17:38;101376.0;;;6.43;92.72
64023;BME280;50264;52.088;5.296;2023-02-22T03:19:24;101374.0;;;6.46;93.31
64023;BME280;50264;52.088;5.296;2023-02-22T03:22:57;101369.0;;;6.49;93.74
64023;BME280;50264;52.088;5.296;2023-02-22T03:24:38;101365.0;;;6.41;93.05
64023;BME280;50264;52.088;5.296;2023-02-22T03:26:25;101367.0;;;6.47;93.63
64023;BME280;50264;52.088;5.296;2023-02-22T03:28:14;101362.0;;;6.49;92.72
64023;BME280;50264;52.088;5.296;2023-02-22T03:29:54;101366.0;;;6.62;92.6
64023;BME280;50264;52.088;5.296;2023-02-22T03:33:24;101363.0;;;6.73;92.58
64023;BME280;50264;52.088;5.296;2023-02-22T03:35:05;101369.0;;;6.56;92.75
64023;BME280;50264;52.088;5.296;2023-02-22T03:36:44;101361.0;;;6.53;92.81
64023;BME280;50264;52.088;5.296;2023-02-22T03:38:26;101358.0;;;6.6;92.64
64023;BME280;50264;52.088;5.296;2023-02-22T03:41:55;101353.0;;;6.47;92.9
64023;BME280;50264;52.088;5.296;2023-02-22T03:43:37;101351.0;;;6.49;93.54
64023;BME280;50264;52.088;5.296;2023-02-22T03:45:18;101348.0;;;6.53;93.93
64023;BME280;50264;52.088;5.296;2023-02-22T03:46:58;101348.0;;;6.57;93.57
64023;BME280;50264;52.088;5.296;2023-02-22T03:48:42;101345.0;;;6.43;92.95
64023;BME280;50264;52.088;5.296;2023-02-22T03:52:08;101345.0;;;6.49;93.52
64023;BME280;50264;52.088;5.296;2023-02-22T03:53:44;101349.0;;;6.39;93.43
64023;BME280;50264;52.088;5.296;2023-02-22T03:55:22;101343.0;;;6.37;93.48
64023;BME280;50264;52.088;5.296;2023-02-22T03:57:04;101347.0;;;6.35;93.81
64023;BME280;50264;52.088;5.296;2023-02-22T04:00:28;101343.0;;;6.39;93.73
64023;BME280;50264;52.088;5.296;2023-02-22T04:02:05;101338.0;;;6.37;94.94
64023;BME280;50264;52.088;5.296;2023-02-22T04:03:42;101334.0;;;6.32;94.67
64023;BME280;50264;52.088;5.296;2023-02-22T04:05:19;101340.0;;;6.41;95.07
64023;BME280;50264;52.088;5.296;2023-02-22T04:08:32;101332.0;;;6.42;94.68
64023;BME280;50264;52.088;5.296;2023-02-22T04:10:11;101330.0;;;6.41;94.75
64023;BME280;50264;52.088;5.296;2023-02-22T04:11:51;101322.0;;;6.33;94.52
64023;BME280;50264;52.088;5.296;2023-02-22T04:15:05;101319.0;;;6.22;95.21
64023;BME280;50264;52.088;5.296;2023-02-22T04:16:43;101321.0;;;6.19;95.93
64023;BME280;50264;52.088;5.296;2023-02-22T04:18:20;101323.0;;;6.13;95.67
64023;BME280;50264;52.088;5.296;2023-02-22T04:19:57;101319.0;;;6.13;95.91
64023;BME280;50264;52.088;5.296;2023-02-22T04:23:10;101318.0;;;6.27;95.48
64023;BME280;50264;52.088;5.296;2023-02-22T04:24:48;101312.0;;;6.26;95.2
64023;BME280;50264;52.088;5.296;2023-02-22T04:26:24;101306.0;;;6.19;96.19
64023;BME280;50264;52.088;5.296;2023-02-22T04:29:38;101303.0;;;6.26;95.88
64023;BME280;50264;52.088;5.296;2023-02-22T04:31:15;101308.0;;;6.28;96.28
64023;BME280;50264;52.088;5.296;2023-02-22T04:32:52;101302.0;;;6.29;96.23
64023;BME280;50264;52.088;5.296;2023-02-22T04:36:05;101301.0;;;6.24;96.05
64023;BME280;50264;52.088;5.296;2023-02-22T04:37:41;101301.0;;;6.28;95.9
64023;BME280;50264;52.088;5.296;2023-02-22T04:39:17;101298.0;;;6.34;95.93
64023;BME280;50264;52.088;5.296;2023-02-22T04:40:54;101292.0;;;6.3;96.1
64023;BME280;50264;52.088;5.296;2023-02-22T04:44:06;101286.0;;;6.28;96.18
64023;BME280;50264;52.088;5.296;2023-02-22T04:45:42;101290.0;;;6.41;96.09
64023;BME280;50264;52.088;5.296;2023-02-22T04:47:18;101284.0;;;6.28;95.74
64023;BME280;50264;52.088;5.296;2023-02-22T04:50:30;101281.0;;;6.31;95.63
64023;BME280;50264;52.088;5.296;2023-02-22T04:52:06;101277.0;;;6.26;96.32
64023;BME280;50264;52.088;5.296;2023-02-22T04:53:43;101280.0;;;6.18;96.46
64023;BME280;50264;52.088;5.296;2023-02-22T04:56:56;101272.0;;;6.19;96.44
64023;BME280;50264;52.088;5.296;2023-02-22T04:58:33;101276.0;;;6.15;96.9
64023;BME280;50264;52.088;5.296;2023-02-22T05:00:14;101277.0;;;6.18;96.16
64023;BME280;50264;52.088;5.296;2023-02-22T05:01:51;101264.0;;;6.18;96.0
64023;BME280;50264;52.088;5.296;2023-02-22T05:05:05;101269.0;;;6.16;96.71
64023;BME280;50264;52.088;5.296;2023-02-22T05:06:42;101269.0;;;6.23;96.95
64023;BME280;50264;52.088;5.296;2023-02-22T05:08:18;101264.0;;;6.18;96.43
64023;BME280;50264;52.088;5.296;2023-02-22T05:11:30;101262.0;;;6.23;96.19
64023;BME280;50264;52.088;5.296;2023-02-22T05:13:06;101258.0;;;6.29;96.28
64023;BME280;50264;52.088;5.296;2023-02-22T05:14:43;101257.0;;;6.27;96.76
64023;BME280;50264;52.088;5.296;2023-02-22T05:17:56;101250.0;;;6.27;96.35
64023;BME280;50264;52.088;5.296;2023-02-22T05:19:32;101252.0;;;6.31;96.71
64023;BME280;50264;52.088;5.296;2023-02-22T05:21:08;101252.0;;;6.26;96.98
64023;BME280;50264;52.088;5.296;2023-02-22T05:22:45;101249.0;;;6.31;96.8
64023;BME280;50264;52.088;5.296;2023-02-22T05:25:58;101250.0;;;6.24;96.76
64023;BME280;50264;52.088;5.296;2023-02-22T05:27:33;101243.0;;;6.34;97.14
64023;BME280;50264;52.088;5.296;2023-02-22T05:29:10;101251.0;;;6.21;97.19
64023;BME280;50264;52.088;5.296;2023-02-22T05:32:23;101250.0;;;6.3;96.88
64023;BME280;50264;52.088;5.296;2023-02-22T05:33:59;101250.0;;;6.22;97.08
64023;BME280;50264;52.088;5.296;2023-02-22T05:35:36;101255.0;;;6.14;97.52
64023;BME280;50264;52.088;5.296;2023-02-22T05:38:48;101251.0;;;6.03;97.75
64023;BME280;50264;52.088;5.296;2023-02-22T05:40:25;101252.0;;;6.04;98.01
64023;BME280;50264;52.088;5.296;2023-02-22T05:42:03;101246.0;;;6.02;98.08
64023;BME280;50264;52.088;5.296;2023-02-22T05:43:39;101248.0;;;6.02;98.31
64023;BME280;50264;52.088;5.296;2023-02-22T05:46:55;101246.0;;;6.04;98.31
64023;BME280;50264;52.088;5.296;2023-02-22T05:48:32;101241.0;;;6.15;97.89
64023;BME280;50264;52.088;5.296;2023-02-22T05:50:09;101242.0;;;6.19;98.17
64023;BME280;50264;52.088;5.296;2023-02-22T05:53:23;101239.0;;;6.23;97.58
64023;BME280;50264;52.088;5.296;2023-02-22T05:54:59;101236.0;;;6.24;97.92
64023;BME280;50264;52.088;5.296;2023-02-22T05:56:35;101240.0;;;6.28;96.93
64023;BME280;50264;52.088;5.296;2023-02-22T05:58:12;101240.0;;;6.28;97.02
64023;BME280;50264;52.088;5.296;2023-02-22T06:01:25;101234.0;;;6.2;97.42
64023;BME280;50264;52.088;5.296;2023-02-22T06:03:03;101234.0;;;6.27;97.76
64023;BME280;50264;52.088;5.296;2023-02-22T06:04:43;101231.0;;;6.25;97.82
64023;BME280;50264;52.088;5.296;2023-02-22T06:07:56;101227.0;;;6.24;98.0
64023;BME280;50264;52.088;5.296;2023-02-22T06:09:32;101218.0;;;6.24;98.28
64023;BME280;50264;52.088;5.296;2023-02-22T06:11:09;101215.0;;;6.22;98.16
64023;BME280;50264;52.088;5.296;2023-02-22T06:14:25;101211.0;;;6.21;98.04
64023;BME280;50264;52.088;5.296;2023-02-22T06:16:01;101221.0;;;6.29;97.84
64023;BME280;50264;52.088;5.296;2023-02-22T06:17:38;101217.0;;;6.23;98.14
64023;BME280;50264;52.088;5.296;2023-02-22T06:19:17;101220.0;;;6.24;98.21
64023;BME280;50264;52.088;5.296;2023-02-22T06:22:29;101221.0;;;6.25;98.12
64023;BME280;50264;52.088;5.296;2023-02-22T06:24:06;101220.0;;;6.27;98.42
64023;BME280;50264;52.088;5.296;2023-02-22T06:25:42;101217.0;;;6.13;98.49
64023;BME280;50264;52.088;5.296;2023-02-22T06:28:54;101214.0;;;6.06;99.58
64023;BME280;50264;52.088;5.296;2023-02-22T06:30:30;101210.0;;;6.04;99.36
64023;BME280;50264;52.088;5.296;2023-02-22T06:32:06;101221.0;;;6.11;99.2
64023;BME280;50264;52.088;5.296;2023-02-22T06:35:19;101219.0;;;6.1;99.04
64023;BME280;50264;52.088;5.296;2023-02-22T06:36:56;101211.0;;;6.11;98.9
64023;BME280;50264;52.088;5.296;2023-02-22T06:38:32;101212.0;;;6.09;99.14
64023;BME280;50264;52.088;5.296;2023-02-22T06:40:11;101206.0;;;6.06;99.33
64023;BME280;50264;52.088;5.296;2023-02-22T06:43:25;101195.0;;;6.08;99.65
64023;BME280;50264;52.088;5.296;2023-02-22T06:45:02;101194.0;;;6.2;99.2
64023;BME280;50264;52.088;5.296;2023-02-22T06:46:39;101199.0;;;6.05;99.29
64023;BME280;50264;52.088;5.296;2023-02-22T06:49:58;101203.0;;;6.11;99.63
64023;BME280;50264;52.088;5.296;2023-02-22T06:51:35;101205.0;;;6.12;99.59
64023;BME280;50264;52.088;5.296;2023-02-22T06:53:12;101202.0;;;6.09;99.22
64023;BME280;50264;52.088;5.296;2023-02-22T06:54:50;101200.0;;;6.22;99.27
64023;BME280;50264;52.088;5.296;2023-02-22T06:58:04;101194.0;;;6.18;98.65
64023;BME280;50264;52.088;5.296;2023-02-22T06:59:41;101196.0;;;6.18;98.99
64023;BME280;50264;52.088;5.296;2023-02-22T07:01:17;101184.0;;;6.16;99.16
64023;BME280;50264;52.088;5.296;2023-02-22T07:04:31;101187.0;;;6.33;99.19
64023;BME280;50264;52.088;5.296;2023-02-22T07:06:08;101185.0;;;6.46;98.5
64023;BME280;50264;52.088;5.296;2023-02-22T07:07:45;101180.0;;;6.52;98.53
64023;BME280;50264;52.088;5.296;2023-02-22T07:09:23;101186.0;;;6.57;98.32
64023;BME280;50264;52.088;5.296;2023-02-22T07:12:36;101189.0;;;6.67;98.08
64023;BME280;50264;52.088;5.296;2023-02-22T07:14:15;101188.0;;;6.45;97.73
64023;BME280;50264;52.088;5.296;2023-02-22T07:15:52;101195.0;;;6.49;97.92
64023;BME280;50264;52.088;5.296;2023-02-22T07:19:05;101193.0;;;6.58;98.14
64023;BME280;50264;52.088;5.296;2023-02-22T07:20:41;101201.0;;;6.62;97.75
64023;BME280;50264;52.088;5.296;2023-02-22T07:22:18;101200.0;;;6.7;97.42
64023;BME280;50264;52.088;5.296;2023-02-22T07:25:33;101198.0;;;6.73;97.25
64023;BME280;50264;52.088;5.296;2023-02-22T07:27:09;101192.0;;;6.73;96.86
64023;BME280;50264;52.088;5.296;2023-02-22T07:28:46;101191.0;;;6.68;96.96
64023;BME280;50264;52.088;5.296;2023-02-22T07:30:25;101192.0;;;6.58;97.02
64023;BME280;50264;52.088;5.296;2023-02-22T07:33:41;101195.0;;;6.71;97.23
64023;BME280;50264;52.088;5.296;2023-02-22T07:35:19;101197.0;;;6.7;96.73
64023;BME280;50264;52.088;5.296;2023-02-22T07:36:57;101199.0;;;6.72;97.16
64023;BME280;50264;52.088;5.296;2023-02-22T07:40:10;101207.0;;;6.71;97.11
64023;BME280;50264;52.088;5.296;2023-02-22T07:41:47;101209.0;;;6.68;97.2
64023;BME280;50264;52.088;5.296;2023-02-22T07:43:27;101212.0;;;6.61;97.72
64023;BME280;50264;52.088;5.296;2023-02-22T07:45:04;101210.0;;;6.87;97.46
64023;BME280;50264;52.088;5.296;2023-02-22T07:48:17;101212.0;;;6.71;96.87
64023;BME280;50264;52.088;5.296;2023-02-22T07:49:56;101214.0;;;6.74;96.82
64023;BME280;50264;52.088;5.296;2023-02-22T07:51:32;101216.0;;;6.75;97.1
64023;BME280;50264;52.088;5.296;2023-02-22T07:54:51;101220.0;;;6.76;96.74
64023;BME280;50264;52.088;5.296;2023-02-22T07:56:27;101232.0;;;6.78;96.65
64023;BME280;50264;52.088;5.296;2023-02-22T07:58:05;101225.0;;;6.72;97.13
64023;BME280;50264;52.088;5.296;2023-02-22T07:59:44;101227.0;;;6.81;97.36
64023;BME280;50264;52.088;5.296;2023-02-22T08:02:59;101226.0;;;6.87;96.96
64023;BME280;50264;52.088;5.296;2023-02-22T08:04:35;101223.0;;;6.79;96.86
64023;BME280;50264;52.088;5.296;2023-02-22T08:06:11;101224.0;;;6.87;96.76
64023;BME280;50264;52.088;5.296;2023-02-22T08:09:24;101221.0;;;6.82;96.4
64023;BME280;50264;52.088;5.296;2023-02-22T08:11:00;101221.0;;;6.93;96.66
64023;BME280;50264;52.088;5.296;2023-02-22T08:12:37;101224.0;;;6.9;96.68
64023;BME280;50264;52.088;5.296;2023-02-22T08:14:15;101224.0;;;6.83;97.01
64023;BME280;50264;52.088;5.296;2023-02-22T08:17:29;101224.0;;;6.9;96.99
64023;BME280;50264;52.088;5.296;2023-02-22T08:19:05;101223.0;;;6.93;96.82
64023;BME280;50264;52.088;5.296;2023-02-22T08:20:43;101228.0;;;6.78;96.89
64023;BME280;50264;52.088;5.296;2023-02-22T08:23:57;101218.0;;;6.88;96.83
64023;BME280;50264;52.088;5.296;2023-02-22T08:25:34;101222.0;;;6.85;96.41
64023;BME280;50264;52.088;5.296;2023-02-22T08:30:24;101215.0;;;7.03;97.03
64023;BME280;50264;52.088;5.296;2023-02-22T08:32:00;101215.0;;;6.94;96.69
64023;BME280;50264;52.088;5.296;2023-02-22T08:33:36;101220.0;;;6.84;96.92
64023;BME280;50264;52.088;5.296;2023-02-22T08:35:14;101220.0;;;6.99;97.13
64023;BME280;50264;52.088;5.296;2023-02-22T08:38:30;101217.0;;;6.94;96.76
64023;BME280;50264;52.088;5.296;2023-02-22T08:40:08;101218.0;;;6.99;96.68
64023;BME280;50264;52.088;5.296;2023-02-22T08:41:44;101214.0;;;6.97;97.03
64023;BME280;50264;52.088;5.296;2023-02-22T08:44:58;101219.0;;;7.13;97.36
64023;BME280;50264;52.088;5.296;2023-02-22T08:46:35;101217.0;;;7.11;97.22
64023;BME280;50264;52.088;5.296;2023-02-22T08:48:11;101215.0;;;7.19;96.8
64023;BME280;50264;52.088;5.296;2023-02-22T08:49:48;101213.0;;;7.25;96.42
64023;BME280;50264;52.088;5.296;2023-02-22T08:53:03;101209.0;;;7.27;95.53
64023;BME280;50264;52.088;5.296;2023-02-22T08:54:40;101199.0;;;7.25;95.9
64023;BME280;50264;52.088;5.296;2023-02-22T08:56:16;101188.0;;;7.26;96.12
64023;BME280;50264;52.088;5.296;2023-02-22T08:59:29;101188.0;;;7.33;95.79
64023;BME280;50264;52.088;5.296;2023-02-22T09:01:05;101182.0;;;7.48;95.81
64023;BME280;50264;52.088;5.296;2023-02-22T09:02:41;101182.0;;;7.43;95.86
64023;BME280;50264;52.088;5.296;2023-02-22T09:05:54;101180.0;;;7.32;95.91
64023;BME280;50264;52.088;5.296;2023-02-22T09:07:31;101177.0;;;7.42;95.47
64023;BME280;50264;52.088;5.296;2023-02-22T09:09:08;101173.0;;;7.35;95.95
64023;BME280;50264;52.088;5.296;2023-02-22T09:10:45;101174.0;;;7.43;95.85
64023;BME280;50264;52.088;5.296;2023-02-22T09:13:58;101182.0;;;7.47;95.4
64023;BME280;50264;52.088;5.296;2023-02-22T09:15:35;101188.0;;;7.53;95.54
64023;BME280;50264;52.088;5.296;2023-02-22T09:17:13;101186.0;;;7.51;94.4
64023;BME280;50264;52.088;5.296;2023-02-22T09:20:25;101186.0;;;7.66;95.39
64023;BME280;50264;52.088;5.296;2023-02-22T09:22:03;101180.0;;;7.65;94.57
64023;BME280;50264;52.088;5.296;2023-02-22T09:23:40;101180.0;;;7.77;94.53
64023;BME280;50264;52.088;5.296;2023-02-22T09:26:54;101180.0;;;7.77;93.83
64023;BME280;50264;52.088;5.296;2023-02-22T09:28:29;101178.0;;;7.84;94.53
64023;BME280;50264;52.088;5.296;2023-02-22T09:30:07;101168.0;;;7.83;94.12
64023;BME280;50264;52.088;5.296;2023-02-22T09:31:54;101167.0;;;7.95;94.2
64023;BME280;50264;52.088;5.296;2023-02-22T09:35:07;101163.0;;;7.75;93.79
64023;BME280;50264;52.088;5.296;2023-02-22T09:36:46;101156.0;;;7.69;94.47
64023;BME280;50264;52.088;5.296;2023-02-22T09:38:25;101157.0;;;7.77;94.93
64023;BME280;50264;52.088;5.296;2023-02-22T09:40:01;101152.0;;;7.92;95.31
64023;BME280;50264;52.088;5.296;2023-02-22T09:43:34;101152.0;;;7.92;94.73
64023;BME280;50264;52.088;5.296;2023-02-22T09:45:15;101147.0;;;7.92;94.78
64023;BME280;50264;52.088;5.296;2023-02-22T09:46:56;101146.0;;;7.96;94.15
64023;BME280;50264;52.088;5.296;2023-02-22T09:48:35;101141.0;;;8.0;93.85
64023;BME280;50264;52.088;5.296;2023-02-22T09:52:01;101142.0;;;8.07;93.78
64023;BME280;50264;52.088;5.296;2023-02-22T09:53:44;101137.0;;;8.16;94.08
64023;BME280;50264;52.088;5.296;2023-02-22T09:55:30;101144.0;;;8.16;93.33
64023;BME280;50264;52.088;5.296;2023-02-22T09:57:13;101139.0;;;8.23;93.18
64023;BME280;50264;52.088;5.296;2023-02-22T09:58:54;101135.0;;;8.23;93.04
64023;BME280;50264;52.088;5.296;2023-02-22T10:02:22;101127.0;;;8.39;93.37
64023;BME280;50264;52.088;5.296;2023-02-22T10:04:04;101113.0;;;8.52;94.59
64023;BME280;50264;52.088;5.296;2023-02-22T10:05:51;101116.0;;;8.48;91.85
64023;BME280;50264;52.088;5.296;2023-02-22T10:07:32;101122.0;;;8.6;91.72
64023;BME280;50264;52.088;5.296;2023-02-22T10:10:55;101124.0;;;8.78;91.81
64023;BME280;50264;52.088;5.296;2023-02-22T10:12:50;101125.0;;;8.9;90.89
64023;BME280;50264;52.088;5.296;2023-02-22T10:14:47;101127.0;;;8.91;90.16
64023;BME280;50264;52.088;5.296;2023-02-22T10:16:35;101128.0;;;8.9;89.17
64023;BME280;50264;52.088;5.296;2023-02-22T10:18:31;101130.0;;;9.14;90.19
64023;BME280;50264;52.088;5.296;2023-02-22T10:20:48;101126.0;;;9.16;88.15
64023;BME280;50264;52.088;5.296;2023-02-22T10:22:38;101126.0;;;9.28;88.83
64023;BME280;50264;52.088;5.296;2023-02-22T10:24:30;101124.0;;;9.14;86.26
64023;BME280;50264;52.088;5.296;2023-02-22T10:26:14;101120.0;;;9.27;86.74
64023;BME280;50264;52.088;5.296;2023-02-22T10:29:38;101122.0;;;9.39;86.92
64023;BME280;50264;52.088;5.296;2023-02-22T10:31:20;101123.0;;;9.48;85.39
64023;BME280;50264;52.088;5.296;2023-02-22T10:33:03;101120.0;;;9.44;85.99
64023;BME280;50264;52.088;5.296;2023-02-22T10:34:47;101124.0;;;9.44;86.55
64023;BME280;50264;52.088;5.296;2023-02-22T10:38:12;101130.0;;;9.48;86.24
64023;BME280;50264;52.088;5.296;2023-02-22T10:39:56;101131.0;;;9.63;86.5
64023;BME280;50264;52.088;5.296;2023-02-22T10:41:40;101130.0;;;9.74;87.13
64023;BME280;50264;52.088;5.296;2023-02-22T10:43:23;101131.0;;;9.8;85.33
64023;BME280;50264;52.088;5.296;2023-02-22T10:44:59;101134.0;;;9.77;85.26
64023;BME280;50264;52.088;5.296;2023-02-22T10:48:15;101132.0;;;9.73;83.64
64023;BME280;50264;52.088;5.296;2023-02-22T10:49:56;101132.0;;;9.93;83.99
64023;BME280;50264;52.088;5.296;2023-02-22T10:51:34;101127.0;;;9.92;83.12
64023;BME280;50264;52.088;5.296;2023-02-22T10:53:12;101127.0;;;10.09;83.58
64023;BME280;50264;52.088;5.296;2023-02-22T10:56:29;101122.0;;;9.76;82.27
64023;BME280;50264;52.088;5.296;2023-02-22T10:58:07;101120.0;;;9.67;82.55
64023;BME280;50264;52.088;5.296;2023-02-22T10:59:44;101116.0;;;9.77;82.56
64023;BME280;50264;52.088;5.296;2023-02-22T11:03:04;101121.0;;;9.75;82.82
64023;BME280;50264;52.088;5.296;2023-02-22T11:04:52;101120.0;;;9.67;82.56
64023;BME280;50264;52.088;5.296;2023-02-22T11:06:31;101124.0;;;9.73;82.01
64023;BME280;50264;52.088;5.296;2023-02-22T11:08:15;101123.0;;;9.72;81.12
64023;BME280;50264;52.088;5.296;2023-02-22T11:10:01;101124.0;;;9.63;82.55
64023;BME280;50264;52.088;5.296;2023-02-22T11:13:23;101120.0;;;9.6;83.88
64023;BME280;50264;52.088;5.296;2023-02-22T11:15:26;101115.0;;;9.5;84.98
64023;BME280;50264;52.088;5.296;2023-02-22T11:17:06;101121.0;;;9.57;83.99
64023;BME280;50264;52.088;5.296;2023-02-22T11:18:44;101119.0;;;9.6;83.93
64023;BME280;50264;52.088;5.296;2023-02-22T11:20:26;101125.0;;;9.65;83.24